sensor_id;sensor_type;location;lat;lon;timestamp;noise_LAeq;noise_LA_min;noise_LA_max;noise_LA01;noise_LA95
70454;Laerm;57915;47.174;14.680;2023-02-14T00:00:03;44.28;41.69;49.26;;
70454;Laerm;57915;47.174;14.680;2023-02-14T00:01:07;42.87;41.40;46.30;;
70454;Laerm;57915;47.174;14.680;2023-02-14T00:02:09;43.20;41.73;47.20;;
70454;Laerm;57915;47.174;14.680;2023-02-14T00:03:09;56.37;43.64;68.15;;
70454;Laerm;57915;47.174;14.680;2023-02-14T00:04:11;58.95;41.82;72.07;;
70454;Laerm;57915;47.174;14.680;2023-02-14T00:05:11;42.68;41.29;44.50;;
70454;Laerm;57915;47.174;14.680;2023-02-14T00:06:13;42.52;41.24;43.97;;
70454;Laerm;57915;47.174;14.680;2023-02-14T00:07:13;42.82;41.62;44.40;;
70454;Laerm;57915;47.174;14.680;2023-02-14T00:08:15;43.03;41.64;44.44;;
70454;Laerm;57915;47.174;14.680;2023-02-14T00:09:17;42.81;41.31;48.90;;
70454;Laerm;57915;47.174;14.680;2023-02-14T00:10:18;42.71;41.30;45.22;;
70454;Laerm;57915;47.174;14.680;2023-02-14T00:11:19;42.47;41.32;43.64;;
70454;Laerm;57915;47.174;14.680;2023-02-14T00:12:20;42.54;41.19;43.97;;
70454;Laerm;57915;47.174;14.680;2023-02-14T00:13:23;43.27;41.57;48.26;;
70454;Laerm;57915;47.174;14.680;2023-02-14T00:14:23;43.12;41.85;45.40;;
70454;Laerm;57915;47.174;14.680;2023-02-14T00:15:42;42.84;41.48;44.67;;
70454;Laerm;57915;47.174;14.680;2023-02-14T00:16:44;43.13;41.38;45.64;;
70454;Laerm;57915;47.174;14.680;2023-02-14T00:17:44;48.12;42.57;54.25;;
70454;Laerm;57915;47.174;14.680;2023-02-14T00:18:45;46.99;41.94;52.63;;
70454;Laerm;57915;47.174;14.680;2023-02-14T00:20:05;54.21;41.32;67.95;;
70454;Laerm;57915;47.174;14.680;2023-02-14T00:21:06;42.84;41.44;47.93;;
70454;Laerm;57915;47.174;14.680;2023-02-14T00:22:07;43.41;41.40;51.38;;
70454;Laerm;57915;47.174;14.680;2023-02-14T00:23:08;42.73;41.58;46.04;;
70454;Laerm;57915;47.174;14.680;2023-02-14T00:24:11;42.37;41.39;43.62;;
70454;Laerm;57915;47.174;14.680;2023-02-14T00:25:12;42.86;41.33;46.17;;
70454;Laerm;57915;47.174;14.680;2023-02-14T00:26:14;42.68;41.64;43.96;;
70454;Laerm;57915;47.174;14.680;2023-02-14T00:27:15;42.86;41.76;44.53;;
70454;Laerm;57915;47.174;14.680;2023-02-14T00:28:16;42.81;41.60;43.79;;
70454;Laerm;57915;47.174;14.680;2023-02-14T00:29:19;42.89;41.75;44.03;;
70454;Laerm;57915;47.174;14.680;2023-02-14T00:30:20;43.07;41.54;45.99;;
70454;Laerm;57915;47.174;14.680;2023-02-14T00:31:22;42.84;41.76;44.83;;
70454;Laerm;57915;47.174;14.680;2023-02-14T00:32:23;42.78;41.62;44.85;;
70454;Laerm;57915;47.174;14.680;2023-02-14T00:33:24;43.31;41.76;45.08;;
70454;Laerm;57915;47.174;14.680;2023-02-14T00:34:25;43.61;41.74;46.47;;
70454;Laerm;57915;47.174;14.680;2023-02-14T00:35:27;42.88;41.63;45.08;;
70454;Laerm;57915;47.174;14.680;2023-02-14T00:36:27;42.97;41.58;46.28;;
70454;Laerm;57915;47.174;14.680;2023-02-14T00:37:29;43.35;41.79;47.26;;
70454;Laerm;57915;47.174;14.680;2023-02-14T00:38:29;42.94;41.92;44.72;;
70454;Laerm;57915;47.174;14.680;2023-02-14T00:39:31;43.41;42.10;45.75;;
70454;Laerm;57915;47.174;14.680;2023-02-14T00:40:32;42.96;41.80;44.58;;
70454;Laerm;57915;47.174;14.680;2023-02-14T00:41:33;43.17;41.87;44.48;;
70454;Laerm;57915;47.174;14.680;2023-02-14T00:42:34;43.04;41.84;44.79;;
70454;Laerm;57915;47.174;14.680;2023-02-14T00:43:35;42.87;41.79;44.88;;
70454;Laerm;57915;47.174;14.680;2023-02-14T00:44:38;43.06;41.94;44.28;;
70454;Laerm;57915;47.174;14.680;2023-02-14T00:45:38;42.88;41.79;44.18;;
70454;Laerm;57915;47.174;14.680;2023-02-14T00:46:40;43.32;41.96;44.85;;
70454;Laerm;57915;47.174;14.680;2023-02-14T00:47:40;43.40;41.89;45.47;;
70454;Laerm;57915;47.174;14.680;2023-02-14T00:48:42;43.63;41.99;47.38;;
70454;Laerm;57915;47.174;14.680;2023-02-14T00:49:43;43.12;41.69;44.65;;
70454;Laerm;57915;47.174;14.680;2023-02-14T00:50:44;43.40;41.74;45.11;;
70454;Laerm;57915;47.174;14.680;2023-02-14T00:51:45;43.47;42.02;45.50;;
70454;Laerm;57915;47.174;14.680;2023-02-14T00:52:46;56.62;42.04;70.45;;
70454;Laerm;57915;47.174;14.680;2023-02-14T00:53:47;42.90;41.61;44.53;;
70454;Laerm;57915;47.174;14.680;2023-02-14T00:54:49;43.52;42.05;47.78;;
70454;Laerm;57915;47.174;14.680;2023-02-14T00:55:50;43.02;41.62;45.26;;
70454;Laerm;57915;47.174;14.680;2023-02-14T00:56:51;42.41;41.48;43.42;;
70454;Laerm;57915;47.174;14.680;2023-02-14T00:57:52;42.59;41.53;43.62;;
70454;Laerm;57915;47.174;14.680;2023-02-14T00:58:53;42.69;41.68;43.71;;
70454;Laerm;57915;47.174;14.680;2023-02-14T00:59:55;42.75;41.73;45.14;;
70454;Laerm;57915;47.174;14.680;2023-02-14T01:00:57;42.68;41.76;43.81;;
70454;Laerm;57915;47.174;14.680;2023-02-14T01:01:57;42.72;41.65;43.97;;
70454;Laerm;57915;47.174;14.680;2023-02-14T01:02:59;42.88;41.75;44.08;;
70454;Laerm;57915;47.174;14.680;2023-02-14T01:03:59;42.88;41.83;44.16;;
70454;Laerm;57915;47.174;14.680;2023-02-14T01:05:01;42.83;41.82;44.46;;
70454;Laerm;57915;47.174;14.680;2023-02-14T01:06:01;44.17;41.85;49.41;;
70454;Laerm;57915;47.174;14.680;2023-02-14T01:07:05;45.07;42.39;49.41;;
70454;Laerm;57915;47.174;14.680;2023-02-14T01:08:06;43.04;41.96;44.39;;
70454;Laerm;57915;47.174;14.680;2023-02-14T01:09:07;42.85;41.58;46.00;;
70454;Laerm;57915;47.174;14.680;2023-02-14T01:10:09;42.51;41.44;43.50;;
70454;Laerm;57915;47.174;14.680;2023-02-14T01:11:10;42.54;41.47;43.74;;
70454;Laerm;57915;47.174;14.680;2023-02-14T01:12:12;42.65;41.69;43.77;;
70454;Laerm;57915;47.174;14.680;2023-02-14T01:13:13;42.88;41.61;44.58;;
70454;Laerm;57915;47.174;14.680;2023-02-14T01:14:15;42.73;41.63;44.54;;
70454;Laerm;57915;47.174;14.680;2023-02-14T01:15:19;43.10;42.04;44.43;;
70454;Laerm;57915;47.174;14.680;2023-02-14T01:16:20;42.79;41.71;44.21;;
70454;Laerm;57915;47.174;14.680;2023-02-14T01:17:22;42.91;41.78;44.42;;
70454;Laerm;57915;47.174;14.680;2023-02-14T01:18:23;43.50;42.01;47.35;;
70454;Laerm;57915;47.174;14.680;2023-02-14T01:19:24;42.92;41.85;44.15;;
70454;Laerm;57915;47.174;14.680;2023-02-14T01:20:25;42.74;41.77;43.65;;
70454;Laerm;57915;47.174;14.680;2023-02-14T01:21:27;42.99;41.91;45.28;;
70454;Laerm;57915;47.174;14.680;2023-02-14T01:22:28;43.08;42.02;44.52;;
70454;Laerm;57915;47.174;14.680;2023-02-14T01:23:32;59.87;42.94;72.24;;
70454;Laerm;57915;47.174;14.680;2023-02-14T01:24:34;43.41;42.18;45.33;;
70454;Laerm;57915;47.174;14.680;2023-02-14T01:25:35;43.55;42.46;45.01;;
70454;Laerm;57915;47.174;14.680;2023-02-14T01:26:36;43.08;42.03;44.79;;
70454;Laerm;57915;47.174;14.680;2023-02-14T01:27:37;43.46;42.10;45.49;;
70454;Laerm;57915;47.174;14.680;2023-02-14T01:28:38;44.40;42.42;48.19;;
70454;Laerm;57915;47.174;14.680;2023-02-14T01:29:39;43.57;42.38;45.93;;
70454;Laerm;57915;47.174;14.680;2023-02-14T01:30:41;43.56;42.40;45.28;;
70454;Laerm;57915;47.174;14.680;2023-02-14T01:31:43;45.68;43.04;48.93;;
70454;Laerm;57915;47.174;14.680;2023-02-14T01:32:47;44.20;42.34;50.25;;
70454;Laerm;57915;47.174;14.680;2023-02-14T01:33:48;60.13;42.31;74.95;;
70454;Laerm;57915;47.174;14.680;2023-02-14T01:34:49;43.44;42.39;45.36;;
70454;Laerm;57915;47.174;14.680;2023-02-14T01:35:50;43.68;42.54;45.52;;
70454;Laerm;57915;47.174;14.680;2023-02-14T01:36:51;43.41;42.26;44.56;;
70454;Laerm;57915;47.174;14.680;2023-02-14T01:37:53;43.02;42.07;44.02;;
70454;Laerm;57915;47.174;14.680;2023-02-14T01:38:54;43.52;42.17;47.21;;
70454;Laerm;57915;47.174;14.680;2023-02-14T01:39:56;43.15;42.18;44.88;;
70454;Laerm;57915;47.174;14.680;2023-02-14T01:40:57;43.47;42.20;44.70;;
70454;Laerm;57915;47.174;14.680;2023-02-14T01:41:58;43.66;42.51;45.52;;
70454;Laerm;57915;47.174;14.680;2023-02-14T01:42:59;43.23;42.26;44.85;;
70454;Laerm;57915;47.174;14.680;2023-02-14T01:44:01;42.96;42.04;43.78;;
70454;Laerm;57915;47.174;14.680;2023-02-14T01:45:02;43.13;42.08;46.27;;
70454;Laerm;57915;47.174;14.680;2023-02-14T01:46:06;43.68;42.42;45.30;;
70454;Laerm;57915;47.174;14.680;2023-02-14T01:47:07;43.40;42.26;44.61;;
70454;Laerm;57915;47.174;14.680;2023-02-14T01:48:09;43.45;42.28;45.03;;
70454;Laerm;57915;47.174;14.680;2023-02-14T01:49:10;57.90;42.93;70.78;;
70454;Laerm;57915;47.174;14.680;2023-02-14T01:50:14;43.56;41.92;45.60;;
70454;Laerm;57915;47.174;14.680;2023-02-14T01:51:15;43.26;42.10;44.75;;
70454;Laerm;57915;47.174;14.680;2023-02-14T01:52:19;54.55;42.40;66.25;;
70454;Laerm;57915;47.174;14.680;2023-02-14T01:53:23;43.13;42.14;44.32;;
70454;Laerm;57915;47.174;14.680;2023-02-14T01:54:26;43.59;42.52;44.95;;
70454;Laerm;57915;47.174;14.680;2023-02-14T01:55:29;43.26;42.13;45.37;;
70454;Laerm;57915;47.174;14.680;2023-02-14T01:56:33;43.06;42.01;44.48;;
70454;Laerm;57915;47.174;14.680;2023-02-14T01:57:35;43.04;42.08;44.79;;
70454;Laerm;57915;47.174;14.680;2023-02-14T01:58:38;43.05;42.07;44.59;;
70454;Laerm;57915;47.174;14.680;2023-02-14T01:59:40;43.31;42.27;44.98;;
70454;Laerm;57915;47.174;14.680;2023-02-14T02:00:43;43.63;42.29;44.84;;
70454;Laerm;57915;47.174;14.680;2023-02-14T02:01:58;43.25;42.12;44.88;;
70454;Laerm;57915;47.174;14.680;2023-02-14T02:02:58;43.23;42.24;44.50;;
70454;Laerm;57915;47.174;14.680;2023-02-14T02:04:01;43.45;42.33;46.33;;
70454;Laerm;57915;47.174;14.680;2023-02-14T02:05:01;43.69;42.49;45.11;;
70454;Laerm;57915;47.174;14.680;2023-02-14T02:06:05;44.41;42.30;49.30;;
70454;Laerm;57915;47.174;14.680;2023-02-14T02:07:09;45.10;42.29;51.06;;
70454;Laerm;57915;47.174;14.680;2023-02-14T02:08:12;48.47;44.02;56.29;;
70454;Laerm;57915;47.174;14.680;2023-02-14T02:09:14;47.59;44.56;52.50;;
70454;Laerm;57915;47.174;14.680;2023-02-14T02:10:17;45.01;42.93;49.85;;
70454;Laerm;57915;47.174;14.680;2023-02-14T02:11:17;52.45;42.60;64.02;;
70454;Laerm;57915;47.174;14.680;2023-02-14T02:12:19;46.53;43.19;55.54;;
70454;Laerm;57915;47.174;14.680;2023-02-14T02:13:20;43.96;42.72;46.14;;
70454;Laerm;57915;47.174;14.680;2023-02-14T02:14:22;44.31;42.93;48.65;;
70454;Laerm;57915;47.174;14.680;2023-02-14T02:15:22;46.17;43.09;52.94;;
70454;Laerm;57915;47.174;14.680;2023-02-14T02:17:50;43.88;42.38;45.76;;
70454;Laerm;57915;47.174;14.680;2023-02-14T02:18:57;43.61;42.25;45.86;;
70454;Laerm;57915;47.174;14.680;2023-02-14T02:24:16;43.63;42.50;48.60;;
70454;Laerm;57915;47.174;14.680;2023-02-14T02:25:23;43.62;42.24;46.74;;
70454;Laerm;57915;47.174;14.680;2023-02-14T02:26:37;56.96;42.44;71.44;;
70454;Laerm;57915;47.174;14.680;2023-02-14T02:27:59;59.59;42.93;70.55;;
70454;Laerm;57915;47.174;14.680;2023-02-14T02:29:13;46.64;42.99;52.24;;
70454;Laerm;57915;47.174;14.680;2023-02-14T02:31:53;43.34;42.37;44.95;;
70454;Laerm;57915;47.174;14.680;2023-02-14T02:33:06;43.55;42.35;46.54;;
70454;Laerm;57915;47.174;14.680;2023-02-14T02:34:26;43.43;42.34;44.69;;
70454;Laerm;57915;47.174;14.680;2023-02-14T02:35:43;43.49;42.41;45.35;;
70454;Laerm;57915;47.174;14.680;2023-02-14T02:36:52;43.77;42.53;46.64;;
70454;Laerm;57915;47.174;14.680;2023-02-14T02:38:01;55.42;42.72;69.05;;
70454;Laerm;57915;47.174;14.680;2023-02-14T02:39:09;43.84;42.40;45.92;;
70454;Laerm;57915;47.174;14.680;2023-02-14T02:40:16;44.37;42.88;47.88;;
70454;Laerm;57915;47.174;14.680;2023-02-14T02:41:25;56.30;43.16;69.83;;
70454;Laerm;57915;47.174;14.680;2023-02-14T02:42:32;43.69;42.53;47.55;;
70454;Laerm;57915;47.174;14.680;2023-02-14T02:43:37;43.75;42.32;47.12;;
70454;Laerm;57915;47.174;14.680;2023-02-14T02:44:42;43.60;42.46;46.22;;
70454;Laerm;57915;47.174;14.680;2023-02-14T02:45:46;43.40;42.27;44.92;;
70454;Laerm;57915;47.174;14.680;2023-02-14T02:47:18;43.51;42.37;46.20;;
70454;Laerm;57915;47.174;14.680;2023-02-14T02:48:23;43.83;42.60;46.10;;
70454;Laerm;57915;47.174;14.680;2023-02-14T02:49:36;44.68;42.69;52.09;;
70454;Laerm;57915;47.174;14.680;2023-02-14T02:50:59;56.22;42.74;71.38;;
70454;Laerm;57915;47.174;14.680;2023-02-14T02:52:23;43.80;42.38;46.00;;
70454;Laerm;57915;47.174;14.680;2023-02-14T02:53:46;43.55;42.40;46.48;;
70454;Laerm;57915;47.174;14.680;2023-02-14T02:54:52;46.23;42.78;51.52;;
70454;Laerm;57915;47.174;14.680;2023-02-14T02:55:57;44.01;42.30;47.52;;
70454;Laerm;57915;47.174;14.680;2023-02-14T02:57:21;43.19;42.28;44.99;;
70454;Laerm;57915;47.174;14.680;2023-02-14T02:58:25;43.52;42.57;44.93;;
70454;Laerm;57915;47.174;14.680;2023-02-14T02:59:27;43.42;42.50;44.27;;
70454;Laerm;57915;47.174;14.680;2023-02-14T03:00:29;43.86;42.79;45.27;;
70454;Laerm;57915;47.174;14.680;2023-02-14T03:01:31;43.66;42.40;44.86;;
70454;Laerm;57915;47.174;14.680;2023-02-14T03:02:35;44.37;42.81;48.77;;
70454;Laerm;57915;47.174;14.680;2023-02-14T03:03:58;53.02;42.59;67.32;;
70454;Laerm;57915;47.174;14.680;2023-02-14T03:05:18;44.46;41.97;49.40;;
70454;Laerm;57915;47.174;14.680;2023-02-14T03:06:21;50.90;42.81;62.93;;
70454;Laerm;57915;47.174;14.680;2023-02-14T03:07:28;45.04;43.22;46.59;;
70454;Laerm;57915;47.174;14.680;2023-02-14T03:08:38;54.43;43.17;67.18;;
70454;Laerm;57915;47.174;14.680;2023-02-14T03:10:55;45.23;43.04;56.95;;
70454;Laerm;57915;47.174;14.680;2023-02-14T03:11:59;44.68;42.98;47.56;;
70454;Laerm;57915;47.174;14.680;2023-02-14T03:13:24;48.13;43.47;54.37;;
70454;Laerm;57915;47.174;14.680;2023-02-14T03:14:30;59.49;43.25;71.22;;
70454;Laerm;57915;47.174;14.680;2023-02-14T03:16:53;43.80;42.33;46.02;;
70454;Laerm;57915;47.174;14.680;2023-02-14T03:18:01;43.73;42.68;44.85;;
70454;Laerm;57915;47.174;14.680;2023-02-14T03:19:20;43.98;42.57;45.75;;
70454;Laerm;57915;47.174;14.680;2023-02-14T03:20:44;57.32;42.88;71.55;;
70454;Laerm;57915;47.174;14.680;2023-02-14T03:21:51;44.82;43.03;49.58;;
70454;Laerm;57915;47.174;14.680;2023-02-14T03:22:55;57.77;43.44;70.44;;
70454;Laerm;57915;47.174;14.680;2023-02-14T03:24:03;45.95;43.22;51.82;;
70454;Laerm;57915;47.174;14.680;2023-02-14T03:25:05;56.39;42.86;67.21;;
70454;Laerm;57915;47.174;14.680;2023-02-14T03:26:13;58.98;43.32;70.44;;
70454;Laerm;57915;47.174;14.680;2023-02-14T03:27:16;44.12;42.68;46.65;;
70454;Laerm;57915;47.174;14.680;2023-02-14T03:28:23;44.80;43.11;48.01;;
70454;Laerm;57915;47.174;14.680;2023-02-14T03:29:33;44.91;42.97;48.04;;
70454;Laerm;57915;47.174;14.680;2023-02-14T03:30:39;44.35;42.28;49.40;;
70454;Laerm;57915;47.174;14.680;2023-02-14T03:31:46;61.74;42.42;72.70;;
70454;Laerm;57915;47.174;14.680;2023-02-14T03:32:55;58.11;43.05;70.78;;
70454;Laerm;57915;47.174;14.680;2023-02-14T03:33:59;62.28;44.76;70.43;;
70454;Laerm;57915;47.174;14.680;2023-02-14T03:35:05;60.90;44.22;72.01;;
70454;Laerm;57915;47.174;14.680;2023-02-14T03:36:07;62.76;44.59;75.27;;
70454;Laerm;57915;47.174;14.680;2023-02-14T03:37:16;54.43;43.17;64.89;;
70454;Laerm;57915;47.174;14.680;2023-02-14T03:38:20;55.75;43.37;68.16;;
70454;Laerm;57915;47.174;14.680;2023-02-14T03:39:24;60.85;43.65;74.47;;
70454;Laerm;57915;47.174;14.680;2023-02-14T03:40:29;52.90;43.01;64.30;;
70454;Laerm;57915;47.174;14.680;2023-02-14T03:41:32;57.53;42.57;70.07;;
70454;Laerm;57915;47.174;14.680;2023-02-14T03:42:36;57.37;43.41;69.74;;
70454;Laerm;57915;47.174;14.680;2023-02-14T03:43:40;44.41;42.51;48.99;;
70454;Laerm;57915;47.174;14.680;2023-02-14T03:44:44;64.68;42.77;75.23;;
70454;Laerm;57915;47.174;14.680;2023-02-14T03:45:47;63.48;43.97;73.39;;
70454;Laerm;57915;47.174;14.680;2023-02-14T03:46:53;45.56;42.64;54.33;;
70454;Laerm;57915;47.174;14.680;2023-02-14T03:47:56;61.02;42.74;69.59;;
70454;Laerm;57915;47.174;14.680;2023-02-14T03:49:03;44.78;42.19;49.51;;
70454;Laerm;57915;47.174;14.680;2023-02-14T03:50:05;46.20;42.82;52.58;;
70454;Laerm;57915;47.174;14.680;2023-02-14T03:51:08;44.16;42.70;47.85;;
70454;Laerm;57915;47.174;14.680;2023-02-14T03:52:10;55.45;42.80;67.54;;
70454;Laerm;57915;47.174;14.680;2023-02-14T03:53:15;55.64;42.72;81.49;;
70454;Laerm;57915;47.174;14.680;2023-02-14T03:54:17;57.73;42.61;71.04;;
70454;Laerm;57915;47.174;14.680;2023-02-14T03:55:22;57.71;42.91;68.71;;
70454;Laerm;57915;47.174;14.680;2023-02-14T03:56:26;62.60;44.89;73.88;;
70454;Laerm;57915;47.174;14.680;2023-02-14T03:57:31;59.81;44.37;69.56;;
70454;Laerm;57915;47.174;14.680;2023-02-14T03:58:36;44.53;42.71;46.55;;
70454;Laerm;57915;47.174;14.680;2023-02-14T03:59:39;46.28;43.17;52.18;;
70454;Laerm;57915;47.174;14.680;2023-02-14T04:00:40;61.42;45.50;75.43;;
70454;Laerm;57915;47.174;14.680;2023-02-14T04:01:43;55.96;43.05;68.33;;
70454;Laerm;57915;47.174;14.680;2023-02-14T04:02:46;44.75;43.34;46.98;;
70454;Laerm;57915;47.174;14.680;2023-02-14T04:03:49;56.48;43.17;67.12;;
70454;Laerm;57915;47.174;14.680;2023-02-14T04:04:52;52.87;43.67;62.94;;
70454;Laerm;57915;47.174;14.680;2023-02-14T04:05:54;47.02;43.50;53.88;;
70454;Laerm;57915;47.174;14.680;2023-02-14T04:06:55;58.96;43.72;68.64;;
70454;Laerm;57915;47.174;14.680;2023-02-14T04:07:57;59.28;43.52;71.51;;
70454;Laerm;57915;47.174;14.680;2023-02-14T04:08:59;56.74;43.86;67.74;;
70454;Laerm;57915;47.174;14.680;2023-02-14T04:10:00;56.95;43.84;72.18;;
70454;Laerm;57915;47.174;14.680;2023-02-14T04:11:01;55.35;43.33;69.16;;
70454;Laerm;57915;47.174;14.680;2023-02-14T04:12:03;60.06;45.07;73.19;;
70454;Laerm;57915;47.174;14.680;2023-02-14T04:13:04;64.39;45.89;75.54;;
70454;Laerm;57915;47.174;14.680;2023-02-14T04:14:05;58.56;44.23;71.11;;
70454;Laerm;57915;47.174;14.680;2023-02-14T04:15:06;60.58;45.32;70.68;;
70454;Laerm;57915;47.174;14.680;2023-02-14T04:16:08;60.56;44.48;69.38;;
70454;Laerm;57915;47.174;14.680;2023-02-14T04:17:08;60.95;44.58;72.06;;
70454;Laerm;57915;47.174;14.680;2023-02-14T04:18:27;59.52;44.37;69.55;;
70454;Laerm;57915;47.174;14.680;2023-02-14T04:19:46;59.09;44.41;71.53;;
70454;Laerm;57915;47.174;14.680;2023-02-14T04:20:48;62.92;44.46;75.61;;
70454;Laerm;57915;47.174;14.680;2023-02-14T04:21:48;45.93;44.04;49.85;;
70454;Laerm;57915;47.174;14.680;2023-02-14T04:22:50;46.18;43.80;51.73;;
70454;Laerm;57915;47.174;14.680;2023-02-14T04:23:50;58.20;44.93;69.09;;
70454;Laerm;57915;47.174;14.680;2023-02-14T04:24:53;58.61;45.13;68.94;;
70454;Laerm;57915;47.174;14.680;2023-02-14T04:25:54;55.60;45.00;67.91;;
70454;Laerm;57915;47.174;14.680;2023-02-14T04:26:55;58.61;45.05;71.54;;
70454;Laerm;57915;47.174;14.680;2023-02-14T04:28:09;60.62;44.57;70.12;;
70454;Laerm;57915;47.174;14.680;2023-02-14T04:29:10;54.39;45.05;66.38;;
70454;Laerm;57915;47.174;14.680;2023-02-14T04:30:11;62.71;45.62;73.52;;
70454;Laerm;57915;47.174;14.680;2023-02-14T04:31:13;60.78;45.86;71.01;;
70454;Laerm;57915;47.174;14.680;2023-02-14T04:32:15;61.06;45.91;74.14;;
70454;Laerm;57915;47.174;14.680;2023-02-14T04:33:17;65.20;46.89;75.76;;
70454;Laerm;57915;47.174;14.680;2023-02-14T04:34:18;64.74;53.26;70.95;;
70454;Laerm;57915;47.174;14.680;2023-02-14T04:35:19;53.74;45.21;67.40;;
70454;Laerm;57915;47.174;14.680;2023-02-14T04:36:20;63.64;46.99;72.81;;
70454;Laerm;57915;47.174;14.680;2023-02-14T04:37:21;58.09;45.72;69.19;;
70454;Laerm;57915;47.174;14.680;2023-02-14T04:38:22;60.33;46.88;71.29;;
70454;Laerm;57915;47.174;14.680;2023-02-14T04:39:26;62.84;49.90;71.55;;
70454;Laerm;57915;47.174;14.680;2023-02-14T04:40:28;64.34;47.16;74.19;;
70454;Laerm;57915;47.174;14.680;2023-02-14T04:41:29;63.57;50.14;71.00;;
70454;Laerm;57915;47.174;14.680;2023-02-14T04:42:30;57.38;45.95;69.40;;
70454;Laerm;57915;47.174;14.680;2023-02-14T04:43:31;54.36;45.03;67.38;;
70454;Laerm;57915;47.174;14.680;2023-02-14T04:44:32;60.30;45.05;69.90;;
70454;Laerm;57915;47.174;14.680;2023-02-14T04:45:34;61.16;45.75;71.71;;
70454;Laerm;57915;47.174;14.680;2023-02-14T04:46:34;57.37;45.25;70.32;;
70454;Laerm;57915;47.174;14.680;2023-02-14T04:47:36;61.47;44.72;71.98;;
70454;Laerm;57915;47.174;14.680;2023-02-14T04:48:36;57.59;44.63;70.00;;
70454;Laerm;57915;47.174;14.680;2023-02-14T04:49:38;47.83;44.27;55.72;;
70454;Laerm;57915;47.174;14.680;2023-02-14T04:50:39;64.63;47.47;73.42;;
70454;Laerm;57915;47.174;14.680;2023-02-14T04:51:40;61.53;45.75;72.50;;
70454;Laerm;57915;47.174;14.680;2023-02-14T04:52:41;49.70;45.34;55.96;;
70454;Laerm;57915;47.174;14.680;2023-02-14T04:53:45;51.39;45.15;59.25;;
70454;Laerm;57915;47.174;14.680;2023-02-14T04:54:45;60.06;45.84;71.56;;
70454;Laerm;57915;47.174;14.680;2023-02-14T04:55:49;60.77;45.21;71.69;;
70454;Laerm;57915;47.174;14.680;2023-02-14T04:56:49;60.61;44.05;73.72;;
70454;Laerm;57915;47.174;14.680;2023-02-14T04:57:51;54.74;43.93;65.71;;
70454;Laerm;57915;47.174;14.680;2023-02-14T04:58:51;65.73;45.04;78.35;;
70454;Laerm;57915;47.174;14.680;2023-02-14T04:59:53;50.75;44.21;64.08;;
70454;Laerm;57915;47.174;14.680;2023-02-14T05:00:53;46.70;44.30;51.76;;
70454;Laerm;57915;47.174;14.680;2023-02-14T05:01:55;60.64;44.56;73.91;;
70454;Laerm;57915;47.174;14.680;2023-02-14T05:02:55;65.09;48.37;76.81;;
70454;Laerm;57915;47.174;14.680;2023-02-14T05:03:57;49.25;45.09;56.90;;
70454;Laerm;57915;47.174;14.680;2023-02-14T05:05:00;47.48;45.03;52.03;;
70454;Laerm;57915;47.174;14.680;2023-02-14T05:06:02;62.09;45.57;72.09;;
70454;Laerm;57915;47.174;14.680;2023-02-14T05:07:02;58.70;46.13;72.10;;
70454;Laerm;57915;47.174;14.680;2023-02-14T05:08:04;59.74;45.89;73.53;;
70454;Laerm;57915;47.174;14.680;2023-02-14T05:09:04;49.05;45.43;63.16;;
70454;Laerm;57915;47.174;14.680;2023-02-14T05:10:06;58.76;46.13;70.45;;
70454;Laerm;57915;47.174;14.680;2023-02-14T05:11:09;55.26;44.59;65.69;;
70454;Laerm;57915;47.174;14.680;2023-02-14T05:12:10;62.43;45.67;74.45;;
70454;Laerm;57915;47.174;14.680;2023-02-14T05:13:11;61.26;46.99;72.52;;
70454;Laerm;57915;47.174;14.680;2023-02-14T05:14:12;60.70;48.05;70.44;;
70454;Laerm;57915;47.174;14.680;2023-02-14T05:15:13;60.87;50.10;73.47;;
70454;Laerm;57915;47.174;14.680;2023-02-14T05:16:14;63.34;51.11;71.47;;
70454;Laerm;57915;47.174;14.680;2023-02-14T05:17:15;62.43;48.19;72.12;;
70454;Laerm;57915;47.174;14.680;2023-02-14T05:18:16;57.13;46.66;66.41;;
70454;Laerm;57915;47.174;14.680;2023-02-14T05:19:17;62.68;45.82;70.85;;
70454;Laerm;57915;47.174;14.680;2023-02-14T05:20:18;57.84;44.90;67.57;;
70454;Laerm;57915;47.174;14.680;2023-02-14T05:21:19;59.95;46.29;71.06;;
70454;Laerm;57915;47.174;14.680;2023-02-14T05:22:20;56.22;45.18;68.40;;
70454;Laerm;57915;47.174;14.680;2023-02-14T05:23:21;48.54;44.70;62.62;;
70454;Laerm;57915;47.174;14.680;2023-02-14T05:24:22;60.77;46.21;72.13;;
70454;Laerm;57915;47.174;14.680;2023-02-14T05:25:24;47.21;44.65;53.39;;
70454;Laerm;57915;47.174;14.680;2023-02-14T05:26:25;50.16;45.56;56.74;;
70454;Laerm;57915;47.174;14.680;2023-02-14T05:27:27;58.00;45.54;71.25;;
70454;Laerm;57915;47.174;14.680;2023-02-14T05:28:27;59.47;46.26;73.17;;
70454;Laerm;57915;47.174;14.680;2023-02-14T05:29:29;60.13;46.06;71.27;;
70454;Laerm;57915;47.174;14.680;2023-02-14T05:30:29;63.43;45.58;73.55;;
70454;Laerm;57915;47.174;14.680;2023-02-14T05:31:30;61.82;45.43;75.40;;
70454;Laerm;57915;47.174;14.680;2023-02-14T05:32:31;61.96;45.63;72.03;;
70454;Laerm;57915;47.174;14.680;2023-02-14T05:33:33;61.53;46.16;72.44;;
70454;Laerm;57915;47.174;14.680;2023-02-14T05:34:33;62.00;46.76;74.33;;
70454;Laerm;57915;47.174;14.680;2023-02-14T05:35:35;60.96;47.12;74.56;;
70454;Laerm;57915;47.174;14.680;2023-02-14T05:36:35;56.79;47.71;68.42;;
70454;Laerm;57915;47.174;14.680;2023-02-14T05:37:37;61.66;49.02;72.20;;
70454;Laerm;57915;47.174;14.680;2023-02-14T05:38:37;57.49;46.48;69.81;;
70454;Laerm;57915;47.174;14.680;2023-02-14T05:39:39;62.20;47.93;70.78;;
70454;Laerm;57915;47.174;14.680;2023-02-14T05:40:39;55.88;44.89;66.94;;
70454;Laerm;57915;47.174;14.680;2023-02-14T05:41:42;60.56;45.34;71.45;;
70454;Laerm;57915;47.174;14.680;2023-02-14T05:42:43;58.82;46.18;70.28;;
70454;Laerm;57915;47.174;14.680;2023-02-14T05:43:44;59.64;47.22;69.34;;
70454;Laerm;57915;47.174;14.680;2023-02-14T05:44:45;52.76;46.71;60.87;;
70454;Laerm;57915;47.174;14.680;2023-02-14T05:45:47;57.54;47.42;69.05;;
70454;Laerm;57915;47.174;14.680;2023-02-14T05:46:48;57.29;45.66;65.91;;
70454;Laerm;57915;47.174;14.680;2023-02-14T05:47:50;62.51;51.02;70.33;;
70454;Laerm;57915;47.174;14.680;2023-02-14T05:48:50;64.30;50.43;72.18;;
70454;Laerm;57915;47.174;14.680;2023-02-14T05:49:52;58.04;46.99;71.23;;
70454;Laerm;57915;47.174;14.680;2023-02-14T05:50:52;61.56;47.24;69.62;;
70454;Laerm;57915;47.174;14.680;2023-02-14T05:51:53;55.54;46.66;65.82;;
70454;Laerm;57915;47.174;14.680;2023-02-14T05:52:54;63.07;46.86;76.25;;
70454;Laerm;57915;47.174;14.680;2023-02-14T05:53:56;62.70;47.79;70.93;;
70454;Laerm;57915;47.174;14.680;2023-02-14T05:54:59;58.12;45.88;68.53;;
70454;Laerm;57915;47.174;14.680;2023-02-14T05:55:59;57.54;46.36;66.91;;
70454;Laerm;57915;47.174;14.680;2023-02-14T05:57:02;61.94;47.08;71.30;;
70454;Laerm;57915;47.174;14.680;2023-02-14T05:58:03;60.31;46.46;70.05;;
70454;Laerm;57915;47.174;14.680;2023-02-14T05:59:04;48.35;45.30;54.75;;